Time;durP1;ratioP1;P1;durP2;ratioP2;P2;SDS_P1;SDS_P2;PMS_P1;PMS_P2;Temp;Humidity;BMP_temperature;BMP_pressure;BME280_temperature;BME280_humidity;BME280_pressure;Samples;Min_cycle;Max_cycle;Signal;HPM_P1;HPM_P2
2021/05/15 00:00:36;;;;;;;;;;;;;;;12.72;57.79;94588.19;5101041;28;19969;-81
2021/05/15 00:03:01;;;;;;;;;;;;;;;12.75;57.78;94589.50;5077087;28;20392;-82
2021/05/15 00:05:26;;;;;;;;;;;;;;;12.70;58.53;94586.88;5089414;28;20029;-81
2021/05/15 00:07:52;;;;;;;;;;;;;;;12.66;58.21;94583.16;5097031;28;19904;-80
2021/05/15 00:10:17;;;;;;;;;;;;;;;12.60;58.33;94579.75;5112320;22;19920;-81
2021/05/15 00:12:43;;;;;;;;;;;;;;;12.55;58.47;94577.91;5106765;28;19932;-82
2021/05/15 00:15:11;;;;;;;;;;;;;;;12.55;58.56;94583.13;5072305;28;19924;-81
2021/05/15 00:17:40;;;;;;;;;;;;;;;12.54;58.78;94580.75;5074035;28;19963;-81
2021/05/15 00:20:09;;;;;;;;;;;;;;;12.53;58.57;94579.97;5083799;28;19920;-82
2021/05/15 00:22:35;;;;;;;;;;;;;;;12.53;58.66;94579.97;5122826;22;19928;-82
2021/05/15 00:25:00;;;;;;;;;;;;;;;12.52;58.69;94577.59;5111262;22;19927;-82
2021/05/15 00:27:26;;;;;;;;;;;;;;;12.45;58.38;94577.03;5107914;28;20400;-81
2021/05/15 00:29:51;;;;;;;;;;;;;;;12.48;58.76;94579.91;5125834;28;19919;-82
2021/05/15 00:32:16;;;;;;;;;;;;;;;12.42;58.59;94587.94;5124652;27;20386;-81
2021/05/15 00:34:41;;;;;;;;;;;;;;;12.38;58.64;94587.66;5105981;28;19920;-81
2021/05/15 00:37:07;;;;;;;;;;;;;;;12.37;59.25;94588.72;5123787;28;20425;-81
2021/05/15 00:39:32;;;;;;;;;;;;;;;12.43;58.91;94582.50;5122756;28;19920;-80
2021/05/15 00:41:58;;;;;;;;;;;;;;;12.39;58.58;94591.84;5106658;28;19924;-80
2021/05/15 00:46:48;;;;;;;;;;;;;;;12.37;58.33;94595.75;5106872;28;20031;-81
2021/05/15 00:49:13;;;;;;;;;;;;;;;12.38;58.14;94587.66;5116066;22;19924;-81
2021/05/15 00:51:39;;;;;;;;;;;;;;;12.30;58.34;94588.09;5104845;28;19972;-81
2021/05/15 00:54:04;;;;;;;;;;;;;;;12.25;58.88;94590.69;5093297;28;19920;-81
2021/05/15 00:56:29;;;;;;;;;;;;;;;12.25;58.72;94588.06;5097285;28;19980;-82
2021/05/15 00:58:55;;;;;;;;;;;;;;;12.23;58.18;94588.31;5079090;28;19920;-81
2021/05/15 01:01:21;;;;;;;;;;;;;;;12.13;58.32;94590.03;5078962;28;19926;-81
2021/05/15 01:03:46;;;;;;;;;;;;;;;11.99;58.65;94590.41;5094155;28;19962;-80
2021/05/15 01:06:18;;;;;;;;;;;;;;;11.92;58.69;94592.44;5113289;28;19973;-80
2021/05/15 01:08:46;;;;;;;;;;;;;;;11.84;59.58;94590.25;5112484;28;20360;-80
2021/05/15 01:11:14;;;;;;;;;;;;;;;11.82;60.09;94594.94;5114077;28;19923;-80
2021/05/15 01:13:40;;;;;;;;;;;;;;;11.88;59.40;94588.75;5112898;28;19958;-80
2021/05/15 01:16:05;;;;;;;;;;;;;;;11.89;59.86;94592.16;5114454;28;19959;-80
2021/05/15 01:18:31;;;;;;;;;;;;;;;11.84;59.91;94587.66;5114303;28;20368;-81
2021/05/15 01:20:59;;;;;;;;;;;;;;;11.89;58.82;94590.34;5114704;28;19920;-80
2021/05/15 01:23:25;;;;;;;;;;;;;;;11.91;59.89;94593.47;5095850;28;19968;-80
2021/05/15 01:25:50;;;;;;;;;;;;;;;11.94;60.38;94589.59;5114628;28;19923;-80
2021/05/15 01:28:15;;;;;;;;;;;;;;;11.97;60.10;94592.50;5112688;28;19920;-80
2021/05/15 01:30:41;;;;;;;;;;;;;;;12.06;59.50;94584.25;5096847;28;19924;-81
2021/05/15 01:33:06;;;;;;;;;;;;;;;12.05;60.14;94582.66;5116495;28;19975;-81
2021/05/15 01:35:31;;;;;;;;;;;;;;;12.12;60.20;94578.81;5102436;28;19916;-80
2021/05/15 01:37:57;;;;;;;;;;;;;;;12.14;59.51;94581.19;5107203;28;19923;-81
2021/05/15 01:40:22;;;;;;;;;;;;;;;12.16;59.83;94576.50;5083197;28;19949;-80
2021/05/15 01:42:48;;;;;;;;;;;;;;;12.18;59.59;94583.03;5108200;28;20409;-81
2021/05/15 01:45:13;;;;;;;;;;;;;;;12.17;59.70;94575.47;5129107;28;19920;-81
2021/05/15 01:47:38;;;;;;;;;;;;;;;12.17;59.54;94583.28;5083047;22;19928;-81
2021/05/15 01:50:04;;;;;;;;;;;;;;;12.06;60.06;94584.25;5071940;28;19967;-80
2021/05/15 01:52:29;;;;;;;;;;;;;;;12.01;59.69;94582.34;5066772;28;19948;-81
2021/05/15 01:54:55;;;;;;;;;;;;;;;11.99;60.70;94580.00;5071888;28;19928;-80
2021/05/15 01:57:20;;;;;;;;;;;;;;;11.97;60.22;94581.28;5070407;28;19928;-79
2021/05/15 01:59:45;;;;;;;;;;;;;;;12.00;59.98;94584.19;5073551;28;19927;-81
2021/05/15 02:02:10;;;;;;;;;;;;;;;12.08;59.58;94584.78;5073906;28;19927;-81
2021/05/15 02:04:36;;;;;;;;;;;;;;;12.05;59.43;94583.47;5054110;28;20439;-79
2021/05/15 02:07:01;;;;;;;;;;;;;;;12.00;60.12;94578.19;5067797;28;19926;-81
2021/05/15 02:09:26;;;;;;;;;;;;;;;11.97;60.04;94579.47;5064506;28;19921;-80
2021/05/15 02:11:52;;;;;;;;;;;;;;;11.93;59.59;94581.00;5046717;28;19925;-82
2021/05/15 02:14:17;;;;;;;;;;;;;;;11.85;60.42;94576.19;5062048;28;19928;-82
2021/05/15 02:16:42;;;;;;;;;;;;;;;11.91;60.19;94585.66;5062296;28;20358;-82
2021/05/15 02:19:07;;;;;;;;;;;;;;;11.88;59.79;94578.34;5084914;22;19924;-81
2021/05/15 02:21:33;;;;;;;;;;;;;;;11.85;59.75;94576.19;5102539;28;19920;-82
2021/05/15 02:23:58;;;;;;;;;;;;;;;11.78;59.67;94583.41;5080325;28;19924;-82
2021/05/15 02:26:23;;;;;;;;;;;;;;;11.71;60.30;94582.78;5084174;28;20357;-81
2021/05/15 02:28:49;;;;;;;;;;;;;;;11.69;60.34;94582.25;5086184;28;19927;-80
2021/05/15 02:31:17;;;;;;;;;;;;;;;11.73;60.17;94578.16;5068383;28;19989;-79
2021/05/15 02:33:42;;;;;;;;;;;;;;;11.77;59.55;94574.00;5109650;28;19924;-80
2021/05/15 02:36:08;;;;;;;;;;;;;;;11.77;60.23;94571.41;5084681;28;19930;-80
2021/05/15 02:38:33;;;;;;;;;;;;;;;11.80;60.04;94573.56;5103743;28;20458;-80
2021/05/15 02:40:58;;;;;;;;;;;;;;;11.76;60.25;94569.84;5103921;28;19930;-82
2021/05/15 02:43:24;;;;;;;;;;;;;;;11.84;60.34;94571.25;5101597;28;19931;-81
2021/05/15 02:45:49;;;;;;;;;;;;;;;11.78;60.27;94567.78;5102779;28;20336;-81
2021/05/15 02:48:17;;;;;;;;;;;;;;;11.71;60.30;94565.38;5103129;28;20353;-81
2021/05/15 02:50:43;;;;;;;;;;;;;;;11.78;60.24;94572.97;5100735;28;19967;-81
2021/05/15 02:53:09;;;;;;;;;;;;;;;11.78;59.99;94572.97;5086681;28;19947;-81
2021/05/15 02:55:37;;;;;;;;;;;;;;;11.79;60.87;94574.59;5085625;28;20454;-81
2021/05/15 02:58:02;;;;;;;;;;;;;;;11.80;60.53;94570.94;5095317;28;19942;-81
2021/05/15 03:00:28;;;;;;;;;;;;;;;11.82;60.41;94574.09;5086878;28;20358;-81
2021/05/15 03:02:53;;;;;;;;;;;;;;;11.90;60.49;94581.47;5068572;28;19919;-81
2021/05/15 03:05:20;;;;;;;;;;;;;;;11.90;59.92;94578.88;5106482;28;19931;-81
2021/05/15 03:07:45;;;;;;;;;;;;;;;11.86;60.04;94579.59;5088697;28;20068;-81
2021/05/15 03:10:11;;;;;;;;;;;;;;;11.82;60.01;94571.47;5086775;28;20355;-81
2021/05/15 03:12:36;;;;;;;;;;;;;;;11.83;59.38;94577.47;5091393;28;19924;-79
2021/05/15 03:15:04;;;;;;;;;;;;;;;11.85;60.26;94581.41;5087731;28;20364;-80
2021/05/15 03:17:29;;;;;;;;;;;;;;;11.97;60.15;94576.84;5073300;28;19927;-80
2021/05/15 03:19:54;;;;;;;;;;;;;;;12.06;59.64;94582.44;5072133;28;19920;-81
2021/05/15 03:22:20;;;;;;;;;;;;;;;12.11;60.28;94579.06;5106024;28;19951;-81
2021/05/15 03:24:46;;;;;;;;;;;;;;;12.19;59.81;94589.03;5070254;28;19953;-81
2021/05/15 03:27:11;;;;;;;;;;;;;;;12.21;59.79;94587.00;5086425;28;19920;-81
2021/05/15 03:29:36;;;;;;;;;;;;;;;12.28;59.77;94587.56;5087121;28;19927;-81
2021/05/15 03:32:02;;;;;;;;;;;;;;;12.35;59.41;94587.34;5087870;28;20443;-81
2021/05/15 03:34:27;;;;;;;;;;;;;;;12.37;59.27;94586.09;5070270;28;19933;-81
2021/05/15 03:36:52;;;;;;;;;;;;;;;12.36;59.23;94579.28;5094536;28;19924;-79
2021/05/15 03:39:18;;;;;;;;;;;;;;;12.39;58.71;94578.81;5116798;28;19924;-80
2021/05/15 03:41:47;;;;;;;;;;;;;;;12.53;57.95;94584.41;5078723;28;19947;-81
2021/05/15 03:44:13;;;;;;;;;;;;;;;12.58;58.34;94580.00;5085564;28;19923;-81
2021/05/15 03:46:38;;;;;;;;;;;;;;;12.59;58.01;94584.19;5103845;28;19924;-81
2021/05/15 03:49:03;;;;;;;;;;;;;;;12.57;58.48;94582.88;5114458;28;19919;-81
2021/05/15 03:51:28;;;;;;;;;;;;;;;12.67;58.76;94580.31;5129148;28;20047;-80
2021/05/15 03:53:54;;;;;;;;;;;;;;;12.70;58.44;94586.88;5123925;28;19987;-82
2021/05/15 03:56:19;;;;;;;;;;;;;;;12.84;58.39;94590.59;5092740;28;19924;-80
2021/05/15 03:58:44;;;;;;;;;;;;;;;12.89;58.01;94588.84;5117564;28;19927;-80
2021/05/15 04:01:09;;;;;;;;;;;;;;;13.03;58.55;94580.56;5134944;22;19928;-80
2021/05/15 04:03:35;;;;;;;;;;;;;;;13.16;57.40;94583.50;5103502;28;19952;-80
2021/05/15 04:06:00;;;;;;;;;;;;;;;13.24;56.73;94584.88;5088586;28;19930;-81
2021/05/15 04:08:25;;;;;;;;;;;;;;;13.34;57.07;94584.94;5068476;28;19975;-81
2021/05/15 04:10:50;;;;;;;;;;;;;;;13.40;56.58;94593.59;5065473;28;19924;-82
2021/05/15 04:13:27;;;;;;;;;;;;;;;13.46;56.41;94588.13;5067405;28;20435;-82
2021/05/15 04:16:03;;;;;;;;;;;;;;;13.51;56.09;94592.59;5049417;28;19979;-82
2021/05/15 04:18:30;;;;;;;;;;;;;;;13.58;54.96;94592.34;5059225;28;19920;-80
2021/05/15 04:20:55;;;;;;;;;;;;;;;13.59;54.35;94586.09;5068074;28;19921;-81
2021/05/15 04:23:21;;;;;;;;;;;;;;;13.67;54.00;94581.16;5068467;28;19988;-82
2021/05/15 04:25:46;;;;;;;;;;;;;;;13.76;53.89;94571.00;5068783;28;19920;-82
2021/05/15 04:28:12;;;;;;;;;;;;;;;13.81;53.97;94577.00;5059342;28;19927;-81
2021/05/15 04:30:37;;;;;;;;;;;;;;;13.94;53.84;94577.56;5067118;28;20007;-82
2021/05/15 04:33:02;;;;;;;;;;;;;;;14.05;53.61;94579.16;5052592;28;19920;-81
2021/05/15 04:35:30;;;;;;;;;;;;;;;13.94;53.94;94578.34;5058104;28;19920;-81
2021/05/15 04:37:55;;;;;;;;;;;;;;;14.04;53.89;94577.59;5082752;28;19939;-81
2021/05/15 04:40:20;;;;;;;;;;;;;;;14.21;54.88;94575.53;5087940;28;19924;-80
2021/05/15 04:42:46;;;;;;;;;;;;;;;14.35;54.87;94574.00;5049637;28;19931;-80
2021/05/15 04:45:12;;;;;;;;;;;;;;;14.47;53.02;94575.56;5085218;28;19955;-81
2021/05/15 04:47:37;;;;;;;;;;;;;;;14.54;52.82;94571.66;5052089;28;19924;-81
2021/05/15 04:50:03;;;;;;;;;;;;;;;14.67;52.67;94573.75;5063978;28;19924;-82
2021/05/15 04:55:04;;;;;;;;;;;;;;;15.46;51.92;94561.03;5432108;22;20300;-82
2021/05/15 04:57:29;;;;;;;;;;;;;;;16.14;50.65;94556.78;5100075;28;20384;-82
2021/05/15 05:02:53;;;;;;;;;;;;;;;19.44;41.53;94532.63;5050732;28;20441;-82
2021/05/15 05:05:18;;;;;;;;;;;;;;;20.70;38.55;94530.97;5094389;28;19920;-82
2021/05/15 05:07:43;;;;;;;;;;;;;;;21.31;36.97;94528.63;5076640;28;19931;-82
2021/05/15 05:10:09;;;;;;;;;;;;;;;21.83;35.25;94525.06;5059342;28;19916;-81
2021/05/15 05:12:34;;;;;;;;;;;;;;;21.18;35.50;94514.41;5058766;28;19931;-81
2021/05/15 05:15:06;;;;;;;;;;;;;;;21.22;35.42;94499.50;5058135;28;19916;-81
2021/05/15 05:17:31;;;;;;;;;;;;;;;22.01;34.16;94504.66;5092004;28;19927;-82
2021/05/15 05:19:56;;;;;;;;;;;;;;;22.93;32.11;94507.09;5094345;28;19920;-82
2021/05/15 05:22:22;;;;;;;;;;;;;;;24.10;30.65;94505.59;5101561;22;19924;-82
2021/05/15 05:25:07;;;;;;;;;;;;;;;23.21;30.78;94500.28;5076535;28;19946;-81
2021/05/15 05:27:47;;;;;;;;;;;;;;;23.47;31.17;94499.41;5077672;28;19920;-82
2021/05/15 05:30:13;;;;;;;;;;;;;;;25.26;28.43;94488.72;5083270;22;20281;-81
2021/05/15 05:32:38;;;;;;;;;;;;;;;27.08;25.78;94489.38;5086424;28;19919;-78
2021/05/15 05:35:04;;;;;;;;;;;;;;;28.09;24.38;94489.41;5062979;28;20406;-78
2021/05/15 05:37:29;;;;;;;;;;;;;;;28.11;23.93;94489.81;5143762;22;19927;-77
2021/05/15 05:40:00;;;;;;;;;;;;;;;28.67;23.40;94489.44;5102275;28;19976;-78
2021/05/15 05:42:46;;;;;;;;;;;;;;;30.52;21.59;94502.22;5099441;28;19920;-77
2021/05/15 05:50:17;;;;;;;;;;;;;;;32.66;18.81;94499.28;5107866;22;21473;-79
2021/05/15 05:52:43;;;;;;;;;;;;;;;34.01;17.32;94493.28;5061831;28;19931;-77
2021/05/15 05:55:08;;;;;;;;;;;;;;;35.62;16.01;94501.34;5081825;28;19924;-77
2021/05/15 05:57:33;;;;;;;;;;;;;;;36.89;15.14;94485.69;5079912;28;20347;-78
2021/05/15 05:59:59;;;;;;;;;;;;;;;37.84;13.91;94488.13;5082861;28;20375;-77
2021/05/15 06:02:24;;;;;;;;;;;;;;;38.48;13.53;94491.59;5081006;28;19926;-77
2021/05/15 06:04:49;;;;;;;;;;;;;;;39.06;12.66;94500.09;5097688;28;19928;-76
2021/05/15 06:07:14;;;;;;;;;;;;;;;39.21;12.68;94486.97;5083601;28;20275;-77
2021/05/15 06:09:40;;;;;;;;;;;;;;;38.70;13.06;94497.38;5077990;28;20376;-77
2021/05/15 06:12:05;;;;;;;;;;;;;;;37.78;13.71;94499.88;5072973;28;19970;-76
2021/05/15 06:14:31;;;;;;;;;;;;;;;37.23;14.37;94492.94;5078746;28;19921;-76
2021/05/15 06:16:56;;;;;;;;;;;;;;;37.04;13.93;94496.31;5079560;28;20402;-79
2021/05/15 06:19:21;;;;;;;;;;;;;;;36.35;14.92;94493.72;5067791;28;19950;-78
2021/05/15 06:21:47;;;;;;;;;;;;;;;36.15;15.18;94487.34;5064503;28;19920;-78
2021/05/15 06:24:12;;;;;;;;;;;;;;;36.63;14.36;94483.69;5084306;28;19920;-79
2021/05/15 06:26:38;;;;;;;;;;;;;;;37.06;14.12;94488.53;5059672;28;19921;-77
2021/05/15 06:29:04;;;;;;;;;;;;;;;37.05;14.01;94493.19;5091155;28;20026;-77
2021/05/15 06:31:29;;;;;;;;;;;;;;;36.57;14.24;94485.31;5082072;28;20011;-76
2021/05/15 06:33:54;;;;;;;;;;;;;;;36.04;14.80;94492.09;5084406;28;20246;-76
2021/05/15 06:36:19;;;;;;;;;;;;;;;34.91;15.69;94478.28;5080545;28;20414;-77
2021/05/15 06:38:45;;;;;;;;;;;;;;;34.41;16.04;94464.25;5048459;28;19952;-77
2021/05/15 06:41:10;;;;;;;;;;;;;;;33.92;17.07;94453.22;5064123;28;19925;-76
2021/05/15 06:43:35;;;;;;;;;;;;;;;33.33;17.11;94460.97;5082601;28;19920;-76
2021/05/15 06:46:01;;;;;;;;;;;;;;;33.11;17.31;94460.16;5062983;28;19994;-77
2021/05/15 06:48:26;;;;;;;;;;;;;;;32.73;17.89;94456.25;5060491;28;19921;-77
2021/05/15 06:50:51;;;;;;;;;;;;;;;32.16;18.08;94455.25;5082533;28;19928;-79
2021/05/15 06:53:16;;;;;;;;;;;;;;;31.91;19.12;94460.53;5064172;28;20387;-77
2021/05/15 06:55:42;;;;;;;;;;;;;;;31.82;19.11;94476.22;5064289;28;20014;-76
2021/05/15 06:58:07;;;;;;;;;;;;;;;31.08;19.80;94471.78;5084696;28;19921;-77
2021/05/15 07:00:33;;;;;;;;;;;;;;;30.59;20.14;94467.44;5069262;28;19927;-79
2021/05/15 07:02:58;;;;;;;;;;;;;;;30.43;20.63;94473.03;5063757;28;20391;-77
2021/05/15 07:05:24;;;;;;;;;;;;;;;30.11;20.58;94464.59;5082322;28;19928;-78
2021/05/15 07:07:49;;;;;;;;;;;;;;;29.84;21.32;94455.78;5083023;28;19920;-78
2021/05/15 07:10:14;;;;;;;;;;;;;;;29.82;21.52;94452.69;5082938;28;19924;-78
2021/05/15 07:12:40;;;;;;;;;;;;;;;29.98;21.78;94451.75;5084333;28;20376;-79
2021/05/15 07:15:06;;;;;;;;;;;;;;;30.10;20.44;94451.50;5111401;22;19924;-76
2021/05/15 07:17:31;;;;;;;;;;;;;;;29.65;20.82;94455.13;5087547;28;20295;-77
2021/05/15 07:19:58;;;;;;;;;;;;;;;29.42;21.39;94449.78;5079214;28;19920;-77
2021/05/15 07:22:27;;;;;;;;;;;;;;;29.46;21.25;94447.97;5071871;28;20378;-79
2021/05/15 07:24:52;;;;;;;;;;;;;;;29.69;20.96;94446.00;5085178;28;19928;-78
2021/05/15 07:27:18;;;;;;;;;;;;;;;29.75;21.08;94444.53;5062508;22;19924;-76
2021/05/15 07:29:43;;;;;;;;;;;;;;;29.71;21.15;94433.00;5101768;28;19924;-77
2021/05/15 07:32:09;;;;;;;;;;;;;;;29.70;21.34;94431.47;5056582;28;20311;-77
2021/05/15 07:35:19;;;;;;;;;;;;;;;29.88;21.49;94442.41;5093532;28;20003;-78
2021/05/15 07:37:20;;;;;;;;;;;;;;;29.87;21.47;94435.50;5094135;28;20511;-78
2021/05/15 07:39:45;;;;;;;;;;;;;;;30.15;21.75;94425.16;5094001;28;19934;-78
2021/05/15 07:42:11;;;;;;;;;;;;;;;30.31;20.50;94430.34;5076181;28;19920;-79
2021/05/15 07:44:36;;;;;;;;;;;;;;;30.29;20.78;94427.25;5096675;28;19928;-78
2021/05/15 07:47:01;;;;;;;;;;;;;;;30.15;20.95;94419.03;5095525;28;20051;-78
2021/05/15 07:49:27;;;;;;;;;;;;;;;29.93;21.28;94412.59;5096337;28;20041;-79
2021/05/15 07:51:53;;;;;;;;;;;;;;;29.19;21.63;94418.44;5093536;28;19931;-77
2021/05/15 07:54:19;;;;;;;;;;;;;;;28.36;22.84;94404.03;5092972;28;19971;-78
2021/05/15 07:56:56;;;;;;;;;;;;;;;28.29;23.12;94403.88;5093527;28;19927;-80
2021/05/15 07:59:22;;;;;;;;;;;;;;;27.98;23.48;94402.88;5095106;28;19921;-80
2021/05/15 08:01:47;;;;;;;;;;;;;;;27.58;23.52;94407.75;5096206;28;19935;-80
2021/05/15 08:04:12;;;;;;;;;;;;;;;27.23;24.54;94408.50;5096096;28;20371;-80
2021/05/15 08:06:38;;;;;;;;;;;;;;;26.72;24.16;94421.75;5098204;28;20249;-84
2021/05/15 08:09:03;;;;;;;;;;;;;;;26.29;24.75;94425.94;5101663;28;19931;-81
2021/05/15 08:11:29;;;;;;;;;;;;;;;26.14;24.84;94421.34;5082778;28;19920;-81
2021/05/15 08:13:54;;;;;;;;;;;;;;;26.04;26.02;94408.50;5079220;28;19921;-78
2021/05/15 08:16:20;;;;;;;;;;;;;;;25.94;26.14;94415.09;5102119;28;19931;-79
2021/05/15 08:18:45;;;;;;;;;;;;;;;26.14;25.58;94415.22;5082899;28;19920;-78
2021/05/15 08:21:10;;;;;;;;;;;;;;;26.28;25.55;94419.06;5085345;28;19927;-77
2021/05/15 08:23:53;;;;;;;;;;;;;;;26.42;25.84;94408.03;5070718;28;19924;-77
2021/05/15 08:26:18;;;;;;;;;;;;;;;25.33;26.25;94398.44;5105284;28;19929;-78
2021/05/15 08:28:47;;;;;;;;;;;;;;;25.05;26.91;94385.81;5090511;28;19939;-78
2021/05/15 08:31:12;;;;;;;;;;;;;;;24.39;28.13;94388.59;5091172;28;20453;-78
2021/05/15 08:33:38;;;;;;;;;;;;;;;23.83;29.28;94395.34;5089694;28;19920;-79
2021/05/15 08:36:04;;;;;;;;;;;;;;;23.94;29.37;94399.94;5078012;28;19931;-79
2021/05/15 08:38:29;;;;;;;;;;;;;;;24.00;29.00;94381.16;5077575;28;19920;-78
2021/05/15 08:40:54;;;;;;;;;;;;;;;24.33;29.17;94389.13;5093906;28;19999;-77
2021/05/15 08:43:20;;;;;;;;;;;;;;;24.52;30.15;94384.09;5109185;28;19924;-79
2021/05/15 08:45:46;;;;;;;;;;;;;;;24.60;28.76;94390.44;5076314;28;19920;-80
2021/05/15 08:48:11;;;;;;;;;;;;;;;24.62;28.34;94383.66;5096968;28;19924;-77
2021/05/15 08:50:36;;;;;;;;;;;;;;;24.89;28.80;94387.56;5246710;22;19932;-77
2021/05/15 08:53:02;;;;;;;;;;;;;;;24.80;28.48;94378.91;5048254;28;19948;-78
2021/05/15 08:55:28;;;;;;;;;;;;;;;24.80;28.65;94373.59;5083305;28;19959;-78
2021/05/15 08:57:53;;;;;;;;;;;;;;;24.84;27.57;94369.94;5049153;28;19962;-79
2021/05/15 09:00:26;;;;;;;;;;;;;;;24.91;28.03;94377.38;5068024;28;19920;-79
2021/05/15 09:02:52;;;;;;;;;;;;;;;24.97;27.42;94372.59;5084866;28;19924;-80
2021/05/15 09:05:18;;;;;;;;;;;;;;;25.15;27.86;94373.94;5064223;28;19931;-79
2021/05/15 09:07:48;;;;;;;;;;;;;;;25.43;26.87;94374.03;5068239;28;19920;-84
2021/05/15 09:10:40;;;;;;;;;;;;;;;25.46;26.56;94370.69;5046022;28;19994;-79
2021/05/15 09:13:13;;;;;;;;;;;;;;;25.72;26.25;94365.78;5078703;28;20427;-79
2021/05/15 09:15:46;;;;;;;;;;;;;;;25.95;26.67;94355.34;5082743;28;19924;-78
2021/05/15 09:18:18;;;;;;;;;;;;;;;26.16;26.55;94367.69;5064545;28;19916;-78
2021/05/15 09:20:53;;;;;;;;;;;;;;;26.19;26.62;94362.44;5088093;28;19942;-77
2021/05/15 09:23:19;;;;;;;;;;;;;;;26.24;25.46;94348.91;5080315;28;19951;-78
2021/05/15 09:25:53;;;;;;;;;;;;;;;26.24;25.83;94356.88;5081411;28;19924;-78
2021/05/15 09:28:29;;;;;;;;;;;;;;;26.12;25.44;94351.63;5063712;28;19920;-77
2021/05/15 09:30:54;;;;;;;;;;;;;;;26.02;25.62;94360.09;5063268;28;20387;-77
2021/05/15 09:33:20;;;;;;;;;;;;;;;25.83;26.27;94359.97;5063021;28;19920;-77
2021/05/15 09:35:45;;;;;;;;;;;;;;;25.84;26.54;94356.19;5061308;28;19927;-78
2021/05/15 09:38:12;;;;;;;;;;;;;;;25.84;26.62;94356.19;5053741;28;19920;-77
2021/05/15 09:40:40;;;;;;;;;;;;;;;25.78;26.83;94353.00;5046857;28;19924;-77
2021/05/15 09:43:05;;;;;;;;;;;;;;;25.71;26.60;94350.91;5059458;28;19931;-77
2021/05/15 09:45:32;;;;;;;;;;;;;;;25.46;26.66;94352.06;5060738;28;19920;-77
2021/05/15 09:48:01;;;;;;;;;;;;;;;25.35;27.52;94356.28;5081027;28;19935;-80
2021/05/15 09:50:30;;;;;;;;;;;;;;;25.20;27.24;94351.66;5083298;28;19920;-78
2021/05/15 09:53:10;;;;;;;;;;;;;;;25.03;27.73;94355.34;5081873;28;19924;-81
2021/05/15 09:55:36;;;;;;;;;;;;;;;24.80;31.77;94352.31;5081913;28;19935;-77
2021/05/15 09:58:08;;;;;;;;;;;;;;;24.50;34.84;94357.84;5063691;28;19920;-78
2021/05/15 10:00:46;;;;;;;;;;;;;;;24.04;38.51;94358.13;5082797;28;19924;-79
2021/05/15 10:03:21;;;;;;;;;;;;;;;23.54;38.13;94356.34;5082130;28;19998;-79
2021/05/15 10:05:56;;;;;;;;;;;;;;;23.04;37.15;94355.28;5099609;28;19979;-78
2021/05/15 10:08:22;;;;;;;;;;;;;;;22.42;36.41;94349.75;5085179;28;19924;-79
2021/05/15 10:10:47;;;;;;;;;;;;;;;21.92;36.74;94363.56;5083660;28;19955;-78
2021/05/15 10:13:13;;;;;;;;;;;;;;;21.50;41.00;94371.22;5055129;28;19920;-78
2021/05/15 10:15:38;;;;;;;;;;;;;;;20.71;39.98;94378.50;5065428;28;19924;-77
2021/05/15 10:18:03;;;;;;;;;;;;;;;19.84;38.61;94377.19;5057383;28;20338;-78
2021/05/15 10:20:29;;;;;;;;;;;;;;;19.63;41.93;94377.69;5064345;28;19977;-77
2021/05/15 10:22:54;;;;;;;;;;;;;;;19.61;43.38;94379.84;5064188;28;19924;-80
2021/05/15 10:25:20;;;;;;;;;;;;;;;19.28;45.15;94375.81;5085505;28;19931;-78
2021/05/15 10:27:46;;;;;;;;;;;;;;;19.03;41.81;94377.88;5083434;28;19916;-80
2021/05/15 10:30:12;;;;;;;;;;;;;;;18.74;42.19;94383.47;5084825;28;19942;-78
2021/05/15 10:32:50;;;;;;;;;;;;;;;18.40;42.64;94383.03;5065172;28;19960;-79
2021/05/15 10:35:15;;;;;;;;;;;;;;;18.27;44.65;94384.59;5063794;28;19920;-78
2021/05/15 10:37:44;;;;;;;;;;;;;;;18.26;44.64;94380.38;5056610;28;19920;-78
2021/05/15 10:40:13;;;;;;;;;;;;;;;18.43;45.21;94385.88;5078893;28;19924;-78
2021/05/15 10:42:56;;;;;;;;;;;;;;;18.60;45.44;94378.19;5063654;28;19931;-78
2021/05/15 10:45:31;;;;;;;;;;;;;;;18.69;53.21;94380.16;5055298;28;19927;-79
2021/05/15 10:48:22;;;;;;;;;;;;;;;18.66;47.56;94367.56;5048003;28;20014;-80
2021/05/15 10:50:51;;;;;;;;;;;;;;;18.57;48.37;94368.25;5082043;28;19925;-81
2021/05/15 10:53:20;;;;;;;;;;;;;;;18.60;49.32;94361.59;5047514;28;20461;-81
2021/05/15 10:56:03;;;;;;;;;;;;;;;18.55;48.42;94364.34;5110659;22;20380;-80
2021/05/15 11:01:45;;;;;;;;;;;;;;;18.59;49.21;94355.56;5093392;28;20005;-81
2021/05/15 11:04:19;;;;;;;;;;;;;;;18.64;51.23;94353.91;5093475;28;20292;-80
2021/05/15 11:07:03;;;;;;;;;;;;;;;18.63;48.34;94357.59;5092401;28;19935;-80
2021/05/15 11:09:28;;;;;;;;;;;;;;;18.61;48.15;94357.91;5091392;28;19927;-80
2021/05/15 11:11:55;;;;;;;;;;;;;;;18.50;47.75;94349.41;5097850;28;19916;-80
2021/05/15 11:14:24;;;;;;;;;;;;;;;18.29;49.08;94348.22;5098652;28;19928;-80
2021/05/15 11:17:01;;;;;;;;;;;;;;;17.96;50.75;94347.47;5104984;28;19974;-80
2021/05/15 11:19:27;;;;;;;;;;;;;;;17.56;54.40;94346.22;5080505;28;19920;-81
2021/05/15 11:21:52;;;;;;;;;;;;;;;17.19;56.15;94345.19;5082286;28;19921;-79
2021/05/15 11:24:18;;;;;;;;;;;;;;;16.85;57.31;94355.88;5109133;28;19942;-79
2021/05/15 11:26:51;;;;;;;;;;;;;;;16.61;55.23;94348.00;5091302;28;19945;-79
2021/05/15 11:29:45;;;;;;;;;;;;;;;16.62;53.30;94341.69;5106704;28;19920;-79
2021/05/15 11:32:10;;;;;;;;;;;;;;;16.91;54.04;94346.09;5095574;28;19930;-79
2021/05/15 11:34:35;;;;;;;;;;;;;;;17.12;55.02;94351.88;5097957;28;19916;-80
2021/05/15 11:37:00;;;;;;;;;;;;;;;17.26;59.94;94350.13;5097284;28;20330;-80
2021/05/15 11:39:26;;;;;;;;;;;;;;;17.46;60.47;94359.53;5078376;28;20003;-81
2021/05/15 11:42:14;;;;;;;;;;;;;;;17.55;60.20;94363.06;5085778;22;20177;-80
2021/05/15 11:47:09;;;;;;;;;;;;;;;17.67;58.90;94361.56;5180905;22;19930;-80
2021/05/15 11:49:35;;;;;;;;;;;;;;;17.77;56.93;94365.16;5088613;28;19924;-79
2021/05/15 11:52:01;;;;;;;;;;;;;;;17.83;58.18;94372.66;5091986;28;19928;-79
2021/05/15 11:54:26;;;;;;;;;;;;;;;17.65;56.70;94363.72;5100996;28;19931;-78
2021/05/15 11:59:27;;;;;;;;;;;;;;;17.64;57.10;94356.13;5214438;22;19926;-78
2021/05/15 12:01:53;;;;;;;;;;;;;;;17.64;56.15;94356.13;5070988;28;19920;-77
2021/05/15 12:04:25;;;;;;;;;;;;;;;17.66;53.72;94353.97;5112064;28;19999;-79
2021/05/15 12:06:52;;;;;;;;;;;;;;;17.86;53.06;94342.38;5112098;28;19927;-78
2021/05/15 12:09:17;;;;;;;;;;;;;;;18.03;55.98;94329.47;5110751;28;19970;-78
2021/05/15 12:11:43;;;;;;;;;;;;;;;18.14;53.73;94322.94;5121120;28;19919;-79
2021/05/15 12:14:09;;;;;;;;;;;;;;;18.21;55.40;94312.03;5101620;28;19924;-77
2021/05/15 12:16:35;;;;;;;;;;;;;;;18.22;58.80;94308.31;5103132;28;19962;-78
2021/05/15 12:19:01;;;;;;;;;;;;;;;18.06;59.46;94312.31;5102518;28;19931;-78
2021/05/15 12:21:29;;;;;;;;;;;;;;;18.04;60.26;94317.06;5123875;28;19920;-78
2021/05/15 12:24:01;;;;;;;;;;;;;;;18.00;59.97;94315.03;5119495;28;19934;-78
2021/05/15 12:26:26;;;;;;;;;;;;;;;17.91;59.15;94303.63;5099844;28;19927;-78
2021/05/15 12:28:52;;;;;;;;;;;;;;;17.92;61.31;94310.44;5120281;28;19951;-78
2021/05/15 12:33:46;;;;;;;;;;;;;;;18.02;61.64;94308.69;5239041;22;19908;-78
2021/05/15 12:36:12;;;;;;;;;;;;;;;18.07;61.25;94300.75;5097024;28;19969;-77
2021/05/15 12:38:45;;;;;;;;;;;;;;;18.07;59.63;94300.75;5087620;28;20403;-77
2021/05/15 12:41:15;;;;;;;;;;;;;;;18.17;55.95;94298.69;5046853;28;19997;-78
2021/05/15 12:43:45;;;;;;;;;;;;;;;18.32;56.63;94292.34;5047130;28;19932;-78
2021/05/15 12:46:12;;;;;;;;;;;;;;;18.42;57.33;94292.19;5068816;28;19952;-78
2021/05/15 12:48:40;;;;;;;;;;;;;;;18.47;55.50;94288.66;5093484;28;19980;-78
2021/05/15 12:51:06;;;;;;;;;;;;;;;18.48;55.40;94290.22;5097413;28;20377;-78
2021/05/15 12:53:32;;;;;;;;;;;;;;;18.55;55.55;94282.72;5096409;28;19924;-77
2021/05/15 12:55:58;;;;;;;;;;;;;;;18.64;55.95;94267.00;5087342;28;19988;-82
2021/05/15 12:58:26;;;;;;;;;;;;;;;18.64;60.27;94272.28;5045082;28;20285;-78
2021/05/15 13:00:52;;;;;;;;;;;;;;;18.67;61.30;94263.78;5085684;28;19921;-78
2021/05/15 13:03:24;;;;;;;;;;;;;;;18.71;60.01;94254.22;5084683;28;19967;-80
2021/05/15 13:05:49;;;;;;;;;;;;;;;18.76;60.34;94239.09;5085745;28;19950;-79
2021/05/15 13:08:15;;;;;;;;;;;;;;;18.84;60.07;94246.28;5088677;28;20391;-78
2021/05/15 13:11:06;;;;;;;;;;;;;;;18.97;59.44;94247.31;5086229;28;19921;-78